Time;durP1;ratioP1;P1;durP2;ratioP2;P2;SDS_P1;SDS_P2;PMS_P1;PMS_P2;Temp;Humidity;BMP_temperature;BMP_pressure;BME280_temperature;BME280_humidity;BME280_pressure;Samples;Min_cycle;Max_cycle;Signal;HPM_P1;HPM_P2
2022/02/26 06:51:04;;;;;;;3.90;0.95;;;1.80;99.90;;;;;;6216840;22;1353428;-75
2022/02/26 06:53:29;;;;;;;0.10;0.10;;;1.90;99.90;;;;;;6310129;22;20039;-74
2022/02/26 06:55:55;;;;;;;0.10;0.10;;;1.80;99.90;;;;;;6304387;22;20015;-73
2022/02/26 06:58:21;;;;;;;0.10;0.10;;;1.80;99.90;;;;;;6313369;22;20015;-74
2022/02/26 07:00:47;;;;;;;0.10;0.10;;;1.80;99.90;;;;;;6314760;22;20513;-73
2022/02/26 07:03:12;;;;;;;0.10;0.10;;;1.80;99.90;;;;;;6305737;22;20012;-73
2022/02/26 07:05:38;;;;;;;0.10;0.10;;;1.90;99.90;;;;;;6315311;22;20007;-70
2022/02/26 07:08:04;;;;;;;3.67;3.40;;;1.80;99.90;;;;;;6314347;22;20418;-70
2022/02/26 07:10:30;;;;;;;0.10;0.10;;;1.80;99.90;;;;;;6314441;22;20007;-70
2022/02/26 07:12:56;;;;;;;1.63;1.08;;;1.90;99.90;;;;;;6315607;22;20082;-70
2022/02/26 07:15:21;;;;;;;0.00;0.00;;;1.80;99.90;;;;;;6305968;22;20000;-70
2022/02/26 07:17:47;;;;;;;0.40;0.40;;;1.80;99.90;;;;;;6315537;22;20013;-71
2022/02/26 07:20:13;;;;;;;0.52;0.52;;;1.90;99.90;;;;;;6303987;22;20048;-70
2022/02/26 07:22:39;;;;;;;0.80;0.80;;;1.90;99.90;;;;;;6304167;22;20111;-70
2022/02/26 07:25:06;;;;;;;0.10;0.10;;;1.90;99.90;;;;;;6315862;22;20056;-68
2022/02/26 07:27:32;;;;;;;1.08;1.08;;;1.80;99.90;;;;;;6315717;22;20489;-69
2022/02/26 07:29:57;;;;;;;0.50;0.50;;;1.80;99.90;;;;;;6304153;22;20007;-70
2022/02/26 07:32:23;;;;;;;0.10;0.10;;;1.80;99.90;;;;;;6315755;22;20094;-74
2022/02/26 07:34:49;;;;;;;0.10;0.10;;;1.80;99.90;;;;;;6305855;22;20043;-74
2022/02/26 07:37:18;;;;;;;1.17;1.17;;;1.90;99.90;;;;;;6303779;22;20014;-74
2022/02/26 07:39:44;;;;;;;0.38;0.38;;;2.00;99.90;;;;;;6262550;22;20491;-73
2022/02/26 07:42:10;;;;;;;0.17;0.17;;;2.00;99.90;;;;;;6316018;22;20030;-73
2022/02/26 07:44:36;;;;;;;0.20;0.20;;;2.10;99.90;;;;;;6305401;22;20010;-72
2022/02/26 07:47:02;;;;;;;4.22;1.08;;;2.20;99.90;;;;;;6288541;22;20029;-73
2022/02/26 07:49:27;;;;;;;0.20;0.20;;;2.20;99.90;;;;;;6305296;22;20031;-73
2022/02/26 07:51:53;;;;;;;0.10;0.10;;;2.30;99.90;;;;;;6317055;22;20007;-72
2022/02/26 07:54:19;;;;;;;0.20;0.20;;;2.30;99.90;;;;;;6316066;22;20020;-73
2022/02/26 07:56:44;;;;;;;0.10;0.10;;;2.40;99.90;;;;;;6305717;22;19999;-73
2022/02/26 07:59:10;;;;;;;0.70;0.70;;;2.40;99.90;;;;;;6306148;22;20011;-71
2022/02/26 08:01:36;;;;;;;0.10;0.10;;;2.50;99.90;;;;;;6317422;22;20423;-63
2022/02/26 08:04:02;;;;;;;0.10;0.10;;;2.60;99.90;;;;;;6317713;22;20007;-66
2022/02/26 08:06:27;;;;;;;1.48;1.38;;;2.70;99.90;;;;;;6317383;22;20335;-66
2022/02/26 08:08:55;;;;;;;0.55;0.55;;;2.80;99.90;;;;;;6307033;22;20114;-71
2022/02/26 08:11:21;;;;;;;0.45;0.45;;;2.90;99.90;;;;;;6317588;22;20007;-71
2022/02/26 08:13:47;;;;;;;0.47;0.47;;;2.90;99.90;;;;;;6315638;22;20013;-66
2022/02/26 08:16:13;;;;;;;0.10;0.10;;;3.10;99.90;;;;;;6307526;22;20461;-68
2022/02/26 08:18:39;;;;;;;0.10;0.10;;;3.10;99.90;;;;;;6315746;22;20329;-68
2022/02/26 08:21:04;;;;;;;3.42;1.23;;;3.20;99.90;;;;;;6317035;22;20007;-68
2022/02/26 08:23:31;;;;;;;0.20;0.20;;;3.20;99.90;;;;;;6317547;22;20305;-66
2022/02/26 08:26:00;;;;;;;0.10;0.10;;;3.30;99.90;;;;;;6315768;22;20007;-66
2022/02/26 08:28:26;;;;;;;0.10;0.10;;;3.40;99.90;;;;;;6317305;22;20466;-70
2022/02/26 08:30:52;;;;;;;0.10;0.10;;;3.50;99.90;;;;;;6279416;22;20003;-71
2022/02/26 08:33:17;;;;;;;0.17;0.17;;;3.70;99.90;;;;;;6315588;22;20011;-75
2022/02/26 08:35:43;;;;;;;0.20;0.20;;;3.70;99.90;;;;;;6317300;22;20017;-75
2022/02/26 08:38:09;;;;;;;0.10;0.10;;;3.70;99.90;;;;;;6317113;22;20068;-74
2022/02/26 08:40:37;;;;;;;0.10;0.10;;;3.80;99.90;;;;;;6305732;22;20006;-72
2022/02/26 08:43:06;;;;;;;0.10;0.10;;;3.90;99.90;;;;;;6315835;22;20011;-72
2022/02/26 08:45:32;;;;;;;0.10;0.10;;;4.00;99.90;;;;;;6307243;22;19999;-73
2022/02/26 08:47:58;;;;;;;3.72;2.17;;;4.20;99.90;;;;;;6305026;22;20040;-71
2022/02/26 08:50:24;;;;;;;0.10;0.10;;;4.30;99.90;;;;;;6316832;22;20047;-70
2022/02/26 08:52:50;;;;;;;0.20;0.20;;;4.30;99.90;;;;;;6305369;22;20045;-71
2022/02/26 08:55:16;;;;;;;1.02;1.02;;;4.40;99.90;;;;;;6317092;22;20439;-70
2022/02/26 08:57:42;;;;;;;0.50;0.38;;;4.40;99.90;;;;;;6306596;22;20003;-71
2022/02/26 09:00:11;;;;;;;0.32;0.32;;;4.40;99.90;;;;;;6316817;22;20436;-70
2022/02/26 09:02:40;;;;;;;0.10;0.10;;;4.50;99.90;;;;;;6316851;22;20431;-71
2022/02/26 09:05:07;;;;;;;0.20;0.20;;;4.50;99.90;;;;;;6290407;22;20061;-71
2022/02/26 09:07:35;;;;;;;0.10;0.10;;;4.70;99.90;;;;;;6279065;22;20014;-70
2022/02/26 09:10:04;;;;;;;0.10;0.10;;;4.70;99.90;;;;;;6305151;22;20112;-71
2022/02/26 09:12:30;;;;;;;0.10;0.10;;;4.80;99.90;;;;;;6316946;22;20039;-71
2022/02/26 09:14:55;;;;;;;0.10;0.10;;;4.80;99.90;;;;;;6316648;22;20061;-71
2022/02/26 09:17:21;;;;;;;0.10;0.10;;;5.00;99.90;;;;;;6306690;22;20014;-71
2022/02/26 09:19:47;;;;;;;1.13;1.13;;;5.10;99.90;;;;;;6305181;22;20082;-71
2022/02/26 09:22:13;;;;;;;0.20;0.20;;;5.10;99.90;;;;;;6316691;22;20041;-70
2022/02/26 09:24:39;;;;;;;0.00;0.00;;;5.10;99.90;;;;;;6316499;22;20086;-72
2022/02/26 09:27:06;;;;;;;0.00;0.00;;;5.30;99.90;;;;;;6315108;22;20015;-71
2022/02/26 09:29:32;;;;;;;0.00;0.00;;;5.30;99.90;;;;;;6315213;22;20018;-72
2022/02/26 09:31:58;;;;;;;0.15;0.15;;;5.40;99.90;;;;;;6316384;22;20007;-71
2022/02/26 09:34:24;;;;;;;0.10;0.10;;;5.50;99.90;;;;;;6316592;22;20015;-70
2022/02/26 09:36:51;;;;;;;0.10;0.10;;;5.60;99.90;;;;;;6305133;22;20003;-70
2022/02/26 09:39:20;;;;;;;0.30;0.30;;;5.70;99.90;;;;;;6316486;22;20007;-70
2022/02/26 09:41:50;;;;;;;0.00;0.00;;;5.80;99.90;;;;;;6304886;22;20003;-70
2022/02/26 09:44:19;;;;;;;0.10;0.10;;;5.90;99.90;;;;;;6315089;22;19999;-69
2022/02/26 09:46:48;;;;;;;0.10;0.10;;;5.80;99.90;;;;;;6315087;22;20343;-69
2022/02/26 09:49:13;;;;;;;0.75;0.75;;;6.00;99.90;;;;;;6316357;22;20004;-70
2022/02/26 09:51:42;;;;;;;0.15;0.15;;;6.00;99.90;;;;;;6305738;22;20093;-70
2022/02/26 09:54:08;;;;;;;0.08;0.08;;;6.30;99.90;;;;;;6303974;22;20023;-70
2022/02/26 09:56:34;;;;;;;0.17;0.17;;;6.30;99.90;;;;;;6316485;22;20012;-70
2022/02/26 09:59:04;;;;;;;0.50;0.50;;;6.50;99.90;;;;;;6306155;22;20010;-71
2022/02/26 10:01:30;;;;;;;10.45;3.15;;;6.70;99.90;;;;;;6316724;22;20011;-71
2022/02/26 10:04:11;;;;;;;0.10;0.10;;;6.80;99.90;;;;;;6316275;22;20344;-70
2022/02/26 10:06:40;;;;;;;0.00;0.00;;;7.20;99.90;;;;;;6315019;22;20018;-73
2022/02/26 10:09:13;;;;;;;0.00;0.00;;;7.30;99.90;;;;;;6304519;22;20011;-71
2022/02/26 10:11:40;;;;;;;0.00;0.00;;;7.60;99.90;;;;;;6305384;22;20010;-70
2022/02/26 10:14:17;;;;;;;0.00;0.00;;;7.50;98.70;;;;;;6315191;22;20447;-70
2022/02/26 10:16:56;;;;;;;0.00;0.00;;;7.70;97.40;;;;;;6303770;22;20030;-71
2022/02/26 10:19:35;;;;;;;2.72;1.08;;;8.00;97.70;;;;;;6305889;22;20015;-70
2022/02/26 10:22:08;;;;;;;0.00;0.00;;;8.30;95.80;;;;;;6304295;22;20420;-70
2022/02/26 10:24:39;;;;;;;22.58;8.10;;;8.30;96.80;;;;;;6315954;22;20012;-70
2022/02/26 10:27:10;;;;;;;;;;;8.40;96.60;;;;;;6305108;22;20003;-70
2022/02/26 10:29:39;;;;;;;0.85;0.65;;;8.10;96.20;;;;;;6314889;22;19956;-69
2022/02/26 10:32:10;;;;;;;0.10;0.10;;;8.80;96.60;;;;;;6315929;22;20038;-70
2022/02/26 10:34:38;;;;;;;0.10;0.10;;;9.00;96.20;;;;;;6306060;22;20006;-70
2022/02/26 10:37:11;;;;;;;0.00;0.00;;;9.20;95.00;;;;;;6304103;22;20339;-70
2022/02/26 10:39:49;;;;;;;0.00;0.00;;;9.40;95.00;;;;;;6315710;22;20335;-70
2022/02/26 10:42:25;;;;;;;0.40;0.40;;;8.20;95.30;;;;;;6278792;22;20331;-70
2022/02/26 10:45:22;;;;;;;0.08;0.08;;;9.00;95.70;;;;;;6303773;22;20336;-64
2022/02/26 10:47:49;;;;;;;0.00;0.00;;;9.10;94.10;;;;;;6305994;22;20018;-64
2022/02/26 10:50:22;;;;;;;0.10;0.10;;;8.30;93.70;;;;;;6277670;22;20015;-64
2022/02/26 10:52:54;;;;;;;0.00;0.00;;;8.50;94.60;;;;;;6304910;22;20022;-69
2022/02/26 10:55:20;;;;;;;0.70;0.70;;;8.20;94.60;;;;;;6315548;22;20007;-70
2022/02/26 10:57:45;;;;;;;0.10;0.10;;;8.10;95.50;;;;;;6315281;22;20059;-70
2022/02/26 11:00:12;;;;;;;0.00;0.00;;;8.10;94.50;;;;;;6313936;22;20094;-71
2022/02/26 11:02:37;;;;;;;0.30;0.30;;;8.30;95.70;;;;;;6303894;22;20500;-71
2022/02/26 11:05:04;;;;;;;0.00;0.00;;;8.70;96.10;;;;;;6305208;22;20082;-71
2022/02/26 11:07:31;;;;;;;0.20;0.20;;;9.40;93.90;;;;;;6314337;22;20347;-71
2022/02/26 11:09:59;;;;;;;0.20;0.20;;;9.60;93.80;;;;;;6314247;22;20018;-71
2022/02/26 11:12:27;;;;;;;4.55;3.15;;;9.70;93.80;;;;;;6305736;22;20007;-70
2022/02/26 11:15:02;;;;;;;0.10;0.10;;;10.10;91.40;;;;;;6278369;22;20011;-71
2022/02/26 11:17:31;;;;;;;0.68;0.68;;;10.00;92.90;;;;;;6303889;22;20094;-70
2022/02/26 11:20:01;;;;;;;0.00;0.00;;;9.70;93.30;;;;;;6313991;22;20011;-71
2022/02/26 11:22:27;;;;;;;4.07;2.08;;;10.00;92.00;;;;;;6263307;22;20004;-70
2022/02/26 11:24:54;;;;;;;0.00;0.00;;;10.30;91.40;;;;;;6306366;22;20011;-71
2022/02/26 11:27:25;;;;;;;0.00;0.00;;;11.60;89.50;;;;;;6307576;22;20301;-70
2022/02/26 11:29:52;;;;;;;0.00;0.00;;;11.20;87.30;;;;;;6306195;22;20327;-70
2022/02/26 11:32:21;;;;;;;0.35;0.35;;;12.90;86.00;;;;;;6316098;22;20011;-70
2022/02/26 11:34:48;;;;;;;0.10;0.10;;;13.30;82.90;;;;;;6316256;22;20011;-70
2022/02/26 11:37:18;;;;;;;0.00;0.00;;;14.20;78.00;;;;;;6317889;22;20471;-71
2022/02/26 11:39:52;;;;;;;0.00;0.00;;;14.60;77.30;;;;;;6317758;22;20019;-70
2022/02/26 11:42:27;;;;;;;0.00;0.00;;;11.60;82.40;;;;;;6316351;22;20011;-71
2022/02/26 11:45:01;;;;;;;0.28;0.22;;;11.90;85.30;;;;;;6307237;22;20053;-71
2022/02/26 11:47:39;;;;;;;0.50;0.50;;;14.00;79.60;;;;;;6307730;22;20084;-71
2022/02/26 11:50:18;;;;;;;0.00;0.00;;;12.10;81.10;;;;;;6317309;22;20023;-70
2022/02/26 11:53:14;;;;;;;0.00;0.00;;;11.80;82.80;;;;;;6315668;22;20060;-69
2022/02/26 11:55:53;;;;;;;0.00;0.00;;;10.40;82.40;;;;;;6317332;22;20363;-70
2022/02/26 11:58:23;;;;;;;0.10;0.10;;;10.10;84.30;;;;;;6306192;22;20007;-69
2022/02/26 12:00:51;;;;;;;0.08;0.08;;;10.00;85.70;;;;;;6305735;22;20018;-69
2022/02/26 12:03:49;;;;;;;0.00;0.00;;;11.20;85.90;;;;;;6307421;22;20010;-70
2022/02/26 12:06:16;;;;;;;0.03;0.03;;;10.90;85.00;;;;;;6315474;22;20056;-71
2022/02/26 12:08:55;;;;;;;0.20;0.20;;;10.90;83.30;;;;;;6316031;22;20015;-70
2022/02/26 12:11:20;;;;;;;0.75;0.75;;;11.50;80.50;;;;;;6314614;22;20106;-69
2022/02/26 12:14:25;;;;;;;0.10;0.10;;;12.00;78.10;;;;;;6307067;22;20033;-69
2022/02/26 12:17:10;;;;;;;0.00;0.00;;;11.90;87.50;;;;;;6304997;22;20038;-69
2022/02/26 12:19:47;;;;;;;0.10;0.10;;;11.60;80.70;;;;;;6315921;22;20006;-69
2022/02/26 12:22:14;;;;;;;0.00;0.00;;;10.80;82.50;;;;;;6317470;22;20007;-69
2022/02/26 12:24:52;;;;;;;0.17;0.17;;;12.60;77.60;;;;;;6315976;22;20342;-69
2022/02/26 12:27:39;;;;;;;0.00;0.00;;;13.10;75.50;;;;;;6315884;22;20086;-69
2022/02/26 12:30:15;;;;;;;0.10;0.10;;;13.10;73.70;;;;;;6279029;22;20335;-69
2022/02/26 12:33:04;;;;;;;0.00;0.00;;;13.80;73.00;;;;;;6307287;22;20007;-70
2022/02/26 12:35:36;;;;;;;0.43;0.43;;;15.30;72.00;;;;;;6289931;22;20004;-70
2022/02/26 12:38:23;;;;;;;0.55;0.45;;;13.60;70.10;;;;;;6305344;22;20450;-69
2022/02/26 12:40:49;;;;;;;1.60;0.25;;;12.70;70.50;;;;;;6285421;22;20094;-69
2022/02/26 12:43:15;;;;;;;0.10;0.10;;;12.50;74.10;;;;;;6315284;22;20043;-69
2022/02/26 12:45:47;;;;;;;0.00;0.00;;;12.30;73.70;;;;;;6305127;22;20348;-69
2022/02/26 12:48:13;;;;;;;0.88;0.80;;;10.90;78.70;;;;;;6305138;22;20007;-69
2022/02/26 12:50:41;;;;;;;0.00;0.00;;;13.20;76.40;;;;;;6306507;22;20026;-68
2022/02/26 12:53:08;;;;;;;0.00;0.00;;;14.50;70.90;;;;;;6306514;22;20423;-68
2022/02/26 12:55:35;;;;;;;0.00;0.00;;;11.50;71.70;;;;;;6289911;22;20420;-68
2022/02/26 12:58:00;;;;;;;1.55;1.13;;;12.90;70.00;;;;;;6315148;22;20384;-66
2022/02/26 13:00:30;;;;;;;0.00;0.00;;;13.10;71.10;;;;;;6315786;22;20045;-68
2022/02/26 13:03:09;;;;;;;0.05;0.05;;;14.90;68.00;;;;;;6316021;22;20065;-69
2022/02/26 13:05:38;;;;;;;0.10;0.10;;;13.90;68.30;;;;;;6306279;22;20382;-67
2022/02/26 13:08:14;;;;;;;0.40;0.40;;;12.00;72.20;;;;;;6316534;22;20007;-68
2022/02/26 13:10:43;;;;;;;0.00;0.00;;;12.00;73.90;;;;;;6279507;22;20086;-66
2022/02/26 13:13:15;;;;;;;0.28;0.28;;;11.80;74.20;;;;;;6303427;22;20789;-66
2022/02/26 13:15:45;;;;;;;0.00;0.00;;;12.90;75.40;;;;;;6305172;22;20420;-66
2022/02/26 13:18:11;;;;;;;0.25;0.25;;;12.60;76.30;;;;;;6304861;22;20015;-67
2022/02/26 13:20:39;;;;;;;1.95;1.38;;;11.80;76.80;;;;;;6306750;22;20010;-66
2022/02/26 13:23:08;;;;;;;0.45;0.45;;;13.20;75.00;;;;;;6315060;22;20379;-68
2022/02/26 13:25:38;;;;;;;0.13;0.13;;;11.70;75.00;;;;;;6306920;22;20086;-67
2022/02/26 13:28:05;;;;;;;0.00;0.00;;;11.90;76.10;;;;;;6314997;22;20402;-67
2022/02/26 13:30:32;;;;;;;0.00;0.00;;;12.50;73.80;;;;;;6315248;22;20003;-67
2022/02/26 13:32:59;;;;;;;0.20;0.20;;;10.80;75.60;;;;;;6304856;22;20015;-68
2022/02/26 13:35:30;;;;;;;1.45;0.55;;;11.30;74.90;;;;;;6316542;22;20086;-67
2022/02/26 13:37:58;;;;;;;0.00;0.00;;;11.90;73.30;;;;;;6316335;22;20048;-67
2022/02/26 13:40:25;;;;;;;0.00;0.00;;;12.10;73.00;;;;;;6315128;22;20065;-69
2022/02/26 13:43:10;;;;;;;0.00;0.00;;;12.50;72.80;;;;;;6304795;22;20477;-67
2022/02/26 13:45:42;;;;;;;0.00;0.00;;;13.40;73.90;;;;;;6315172;22;20003;-67
2022/02/26 13:48:19;;;;;;;1.65;1.40;;;12.60;72.30;;;;;;6314295;22;20026;-67
2022/02/26 13:50:54;;;;;;;0.35;0.35;;;12.30;74.40;;;;;;6278544;22;20018;-67
2022/02/26 13:53:20;;;;;;;0.00;0.00;;;13.60;70.40;;;;;;6304323;22;20470;-68
2022/02/26 13:56:00;;;;;;;0.10;0.10;;;12.50;69.80;;;;;;6316459;22;20003;-67
2022/02/26 13:58:30;;;;;;;0.00;0.00;;;12.60;71.80;;;;;;6305101;22;20042;-66
2022/02/26 14:01:08;;;;;;;0.00;0.00;;;10.60;75.30;;;;;;6306296;22;20000;-66
2022/02/26 14:03:52;;;;;;;0.00;0.00;;;10.90;76.20;;;;;;6314988;22;20015;-66
2022/02/26 14:06:32;;;;;;;0.00;0.00;;;12.20;75.00;;;;;;6278803;22;20026;-67
2022/02/26 14:08:58;;;;;;;0.00;0.00;;;12.80;74.70;;;;;;6304525;22;20011;-67
2022/02/26 14:11:32;;;;;;;0.00;0.00;;;12.90;72.90;;;;;;6304779;22;20090;-67
2022/02/26 14:13:58;;;;;;;1.20;0.90;;;13.10;72.70;;;;;;6314619;22;20320;-66
2022/02/26 14:16:25;;;;;;;0.32;0.32;;;14.30;69.80;;;;;;6306218;22;20014;-67
2022/02/26 14:18:51;;;;;;;0.00;0.00;;;14.40;67.90;;;;;;6316162;22;20358;-66
2022/02/26 14:21:20;;;;;;;0.20;0.20;;;13.60;69.40;;;;;;6306063;22;20006;-66
2022/02/26 14:23:48;;;;;;;0.00;0.00;;;14.30;67.00;;;;;;6304502;22;20007;-65
2022/02/26 14:26:18;;;;;;;0.00;0.00;;;12.10;69.70;;;;;;6314695;22;20371;-67
2022/02/26 14:28:44;;;;;;;0.00;0.00;;;10.90;71.30;;;;;;6306065;22;20451;-67
2022/02/26 14:31:12;;;;;;;0.13;0.13;;;11.70;73.80;;;;;;6316111;22;20049;-66
2022/02/26 14:33:39;;;;;;;1.10;1.00;;;11.30;70.70;;;;;;6316076;22;20022;-67
2022/02/26 14:36:05;;;;;;;0.43;0.35;;;11.20;71.60;;;;;;6314644;22;20086;-67
2022/02/26 14:38:31;;;;;;;0.00;0.00;;;12.00;70.90;;;;;;6306066;22;20010;-67
2022/02/26 14:40:57;;;;;;;0.00;0.00;;;12.70;70.10;;;;;;6304141;22;20011;-67
2022/02/26 14:43:23;;;;;;;0.00;0.00;;;12.50;67.90;;;;;;6304580;22;20074;-67
2022/02/26 14:45:50;;;;;;;5.15;2.30;;;12.90;69.40;;;;;;6306151;22;20357;-67
2022/02/26 14:48:16;;;;;;;0.00;0.00;;;13.30;68.30;;;;;;6315915;22;20344;-67
2022/02/26 14:50:41;;;;;;;0.03;0.03;;;12.00;69.40;;;;;;6316003;22;20019;-68
2022/02/26 14:53:07;;;;;;;0.10;0.10;;;13.00;69.10;;;;;;6315994;22;20021;-68
2022/02/26 14:55:33;;;;;;;5.13;1.65;;;13.90;67.10;;;;;;6306196;22;19999;-67
2022/02/26 14:57:59;;;;;;;0.03;0.03;;;14.40;66.80;;;;;;6305381;22;20011;-66
2022/02/26 15:00:26;;;;;;;0.00;0.00;;;11.90;70.00;;;;;;6314330;22;20432;-66
2022/02/26 15:02:52;;;;;;;0.00;0.00;;;12.10;70.70;;;;;;6314551;22;20004;-67
2022/02/26 15:05:18;;;;;;;0.35;0.25;;;12.60;69.30;;;;;;6315918;22;20015;-67
2022/02/26 15:07:45;;;;;;;9.50;1.27;;;12.20;70.70;;;;;;6278088;22;20313;-67
2022/02/26 15:10:13;;;;;;;0.00;0.00;;;10.90;72.90;;;;;;6305821;22;20057;-67
2022/02/26 15:12:39;;;;;;;0.60;0.60;;;11.40;71.80;;;;;;6304052;22;20003;-67
2022/02/26 15:15:06;;;;;;;0.30;0.25;;;11.60;73.00;;;;;;6304237;22;20007;-67
2022/02/26 15:17:32;;;;;;;0.28;0.28;;;12.40;73.40;;;;;;6304550;22;20029;-67
2022/02/26 15:19:58;;;;;;;12.65;1.55;;;12.20;71.20;;;;;;6315684;22;20435;-66
2022/02/26 15:22:24;;;;;;;0.00;0.00;;;11.80;71.80;;;;;;6304418;22;20015;-66
2022/02/26 15:24:50;;;;;;;0.00;0.00;;;12.10;75.10;;;;;;6314082;22;20427;-66
2022/02/26 15:27:16;;;;;;;0.00;0.00;;;12.20;71.10;;;;;;6304246;22;20010;-66
2022/02/26 15:29:42;;;;;;;0.00;0.00;;;13.60;70.90;;;;;;6314524;22;20015;-66
2022/02/26 15:32:08;;;;;;;0.10;0.10;;;14.40;68.40;;;;;;6315591;22;20042;-66
2022/02/26 15:34:33;;;;;;;0.00;0.00;;;14.30;66.90;;;;;;6305609;22;20470;-66
2022/02/26 15:36:59;;;;;;;0.00;0.00;;;15.10;66.10;;;;;;6305413;22;20007;-66
2022/02/26 15:39:25;;;;;;;0.00;0.00;;;13.60;66.40;;;;;;6304372;22;20037;-66
2022/02/26 15:41:51;;;;;;;0.10;0.10;;;12.90;67.50;;;;;;6305465;22;20056;-66
2022/02/26 15:44:18;;;;;;;0.10;0.10;;;12.60;70.40;;;;;;6314164;22;20017;-66
2022/02/26 15:46:45;;;;;;;0.55;0.55;;;12.00;73.00;;;;;;6303903;22;20553;-66
2022/02/26 15:49:11;;;;;;;0.10;0.10;;;12.10;71.40;;;;;;6305514;22;20034;-66
2022/02/26 15:51:38;;;;;;;0.00;0.00;;;11.00;72.70;;;;;;6305446;22;20014;-66
2022/02/26 15:54:04;;;;;;;0.10;0.10;;;10.50;73.90;;;;;;6305332;22;20722;-66
2022/02/26 15:56:31;;;;;;;2.72;1.85;;;10.20;75.00;;;;;;6305465;22;20052;-66
2022/02/26 15:58:58;;;;;;;0.05;0.05;;;10.00;77.00;;;;;;6305641;22;20052;-66
2022/02/26 16:01:25;;;;;;;1.70;1.23;;;9.90;76.70;;;;;;6304421;22;20109;-67
2022/02/26 16:03:50;;;;;;;0.63;0.63;;;9.60;77.90;;;;;;6314157;22;20018;-67
2022/02/26 16:06:16;;;;;;;0.32;0.32;;;9.30;79.40;;;;;;6303958;22;20008;-67
2022/02/26 16:08:42;;;;;;;0.00;0.00;;;9.00;81.70;;;;;;6314243;22;20101;-67
2022/02/26 16:11:08;;;;;;;7.38;2.13;;;8.80;83.20;;;;;;6305750;22;20010;-67
2022/02/26 16:13:34;;;;;;;0.08;0.08;;;8.80;84.20;;;;;;6317716;22;20461;-67
2022/02/26 16:16:00;;;;;;;0.00;0.00;;;8.60;84.00;;;;;;6315979;22;20008;-67
2022/02/26 16:18:26;;;;;;;0.10;0.10;;;8.40;86.00;;;;;;6306885;22;20011;-67
2022/02/26 16:20:53;;;;;;;0.00;0.00;;;8.30;87.20;;;;;;6317587;22;20431;-67
2022/02/26 16:23:21;;;;;;;0.10;0.10;;;8.20;88.70;;;;;;6317658;22;20007;-67
2022/02/26 16:25:47;;;;;;;0.52;0.52;;;7.90;89.70;;;;;;6280079;22;20007;-67
2022/02/26 16:28:14;;;;;;;0.05;0.05;;;7.80;90.90;;;;;;6317090;22;20484;-67
2022/02/26 16:30:40;;;;;;;0.00;0.00;;;7.60;91.50;;;;;;6279925;22;20047;-67
2022/02/26 16:33:06;;;;;;;0.28;0.28;;;7.50;92.30;;;;;;6317116;22;20370;-67
2022/02/26 16:35:32;;;;;;;1.65;1.55;;;7.40;93.00;;;;;;6317339;22;20138;-67
2022/02/26 16:38:01;;;;;;;0.10;0.10;;;7.50;92.90;;;;;;6317355;22;20420;-67
2022/02/26 16:40:30;;;;;;;0.10;0.10;;;7.70;93.10;;;;;;6305798;22;20018;-67
2022/02/26 16:42:57;;;;;;;0.20;0.20;;;7.80;92.80;;;;;;6315902;22;20065;-67
2022/02/26 16:45:24;;;;;;;0.10;0.10;;;7.70;93.00;;;;;;6315570;22;20367;-67
2022/02/26 16:47:51;;;;;;;0.05;0.05;;;7.30;93.70;;;;;;6315944;22;20004;-66
2022/02/26 16:50:17;;;;;;;0.10;0.10;;;7.20;94.30;;;;;;6315346;22;20011;-67
2022/02/26 16:52:44;;;;;;;2.42;2.28;;;7.10;95.00;;;;;;6305562;22;20007;-66
2022/02/26 16:55:11;;;;;;;0.10;0.10;;;6.90;95.60;;;;;;6315677;22;20003;-67
2022/02/26 16:57:37;;;;;;;0.00;0.00;;;6.90;95.40;;;;;;6315606;22;20011;-66
2022/02/26 17:00:09;;;;;;;0.10;0.10;;;6.80;95.70;;;;;;6317198;22;20007;-67
2022/02/26 17:02:37;;;;;;;0.10;0.10;;;6.60;96.70;;;;;;6305162;22;20117;-67
2022/02/26 17:05:05;;;;;;;0.10;0.10;;;6.50;97.70;;;;;;6316898;22;20003;-67
2022/02/26 17:07:38;;;;;;;0.10;0.10;;;6.50;97.80;;;;;;6315638;22;20379;-67
2022/02/26 17:10:08;;;;;;;0.20;0.20;;;6.50;98.00;;;;;;6306965;22;20088;-67
2022/02/26 17:12:34;;;;;;;0.10;0.10;;;6.50;97.70;;;;;;6317266;22;20011;-67
2022/02/26 17:15:00;;;;;;;0.10;0.10;;;6.50;97.80;;;;;;6315190;22;20061;-67
2022/02/26 17:17:27;;;;;;;0.15;0.15;;;6.40;98.20;;;;;;6317114;22;20336;-67
2022/02/26 17:19:54;;;;;;;4.57;2.10;;;6.40;98.60;;;;;;6315545;22;20375;-67
2022/02/26 17:22:21;;;;;;;0.10;0.10;;;6.40;98.70;;;;;;6316948;22;20007;-67
2022/02/26 17:24:47;;;;;;;0.10;0.10;;;6.40;98.80;;;;;;6305494;22;20007;-67
2022/02/26 17:27:14;;;;;;;0.10;0.10;;;6.30;98.40;;;;;;6305495;22;20371;-67
2022/02/26 17:29:40;;;;;;;0.15;0.15;;;6.30;98.50;;;;;;6316875;22;20018;-67
2022/02/26 17:32:07;;;;;;;0.15;0.15;;;6.20;98.50;;;;;;6316548;22;20034;-67
2022/02/26 17:34:34;;;;;;;0.10;0.10;;;6.10;98.60;;;;;;6306862;22;20007;-67
2022/02/26 17:37:01;;;;;;;12.63;2.47;;;6.00;99.00;;;;;;6317041;22;20088;-68
2022/02/26 17:39:26;;;;;;;0.10;0.10;;;6.00;99.10;;;;;;6305225;22;20063;-68
2022/02/26 17:41:52;;;;;;;0.10;0.10;;;6.00;99.20;;;;;;6306931;22;20529;-67
2022/02/26 17:44:18;;;;;;;0.20;0.20;;;6.00;99.70;;;;;;6316500;22;20081;-68
2022/02/26 17:46:44;;;;;;;0.10;0.10;;;5.80;99.90;;;;;;6317021;22;20011;-67
2022/02/26 17:49:10;;;;;;;0.10;0.10;;;5.70;99.90;;;;;;6306369;22;20007;-67
2022/02/26 17:51:35;;;;;;;0.10;0.10;;;5.60;99.90;;;;;;6306702;22;20011;-66
2022/02/26 17:54:02;;;;;;;0.08;0.08;;;5.70;99.90;;;;;;6316793;22;20014;-68
2022/02/26 17:56:28;;;;;;;0.10;0.10;;;5.60;99.90;;;;;;6305988;22;20470;-68
2022/02/26 17:58:54;;;;;;;0.10;0.10;;;5.50;99.90;;;;;;6315017;22;20015;-68
2022/02/26 18:01:22;;;;;;;0.10;0.10;;;5.30;99.90;;;;;;6315196;22;20315;-68
2022/02/26 18:03:48;;;;;;;0.30;0.30;;;5.20;99.90;;;;;;6306030;22;20435;-68
2022/02/26 18:06:14;;;;;;;0.10;0.10;;;5.10;99.90;;;;;;6314657;22;20112;-68
2022/02/26 18:08:40;;;;;;;0.55;0.55;;;5.00;99.90;;;;;;6306427;22;20049;-68
2022/02/26 18:11:06;;;;;;;0.10;0.10;;;5.00;99.90;;;;;;6304445;22;20026;-67
2022/02/26 18:13:31;;;;;;;0.10;0.10;;;5.00;99.90;;;;;;6317067;22;20003;-67
2022/02/26 18:15:57;;;;;;;3.03;2.72;;;4.90;99.90;;;;;;6278609;22;20003;-67
2022/02/26 18:18:23;;;;;;;0.10;0.10;;;4.90;99.90;;;;;;6306295;22;20011;-67
2022/02/26 18:20:49;;;;;;;0.15;0.15;;;4.90;99.90;;;;;;6305616;22;20009;-68
2022/02/26 18:23:15;;;;;;;0.10;0.10;;;4.90;99.90;;;;;;6314181;22;20004;-67
2022/02/26 18:25:41;;;;;;;0.10;0.10;;;4.80;99.90;;;;;;6316053;22;19996;-67
2022/02/26 18:28:08;;;;;;;0.10;0.10;;;4.80;99.90;;;;;;6304588;22;19999;-68
2022/02/26 18:30:34;;;;;;;0.10;0.10;;;4.80;99.90;;;;;;6304639;22;20014;-67
2022/02/26 18:33:00;;;;;;;0.10;0.10;;;4.90;99.90;;;;;;6306380;22;20006;-67
2022/02/26 18:35:25;;;;;;;0.10;0.10;;;4.90;99.90;;;;;;6305757;22;20039;-67
2022/02/26 18:37:51;;;;;;;0.10;0.10;;;4.90;99.90;;;;;;6306415;22;20442;-67
2022/02/26 18:40:18;;;;;;;0.10;0.10;;;4.80;99.90;;;;;;6315914;22;20014;-67
2022/02/26 18:42:45;;;;;;;0.32;0.32;;;4.80;99.90;;;;;;6305990;22;20038;-67
2022/02/26 18:45:12;;;;;;;0.30;0.30;;;4.80;99.90;;;;;;6314465;22;20064;-67
2022/02/26 18:47:39;;;;;;;1.42;1.00;;;4.80;99.90;;;;;;6316119;22;20324;-67
2022/02/26 18:50:07;;;;;;;0.55;0.55;;;4.90;99.90;;;;;;6303867;22;20057;-66
2022/02/26 18:52:33;;;;;;;3.60;1.33;;;4.90;99.90;;;;;;6278231;22;20053;-66
2022/02/26 18:55:00;;;;;;;0.52;0.50;;;5.00;99.90;;;;;;6316202;22;20011;-67
2022/02/26 18:57:26;;;;;;;0.10;0.10;;;4.90;99.90;;;;;;6304004;22;20003;-67
2022/02/26 18:59:51;;;;;;;2.50;2.33;;;5.00;99.90;;;;;;6304299;22;20335;-66
2022/02/26 19:02:17;;;;;;;1.33;1.27;;;5.00;99.90;;;;;;6305948;22;20003;-66
2022/02/26 19:04:43;;;;;;;1.20;0.98;;;4.90;99.90;;;;;;6252942;22;20007;-66
2022/02/26 19:07:08;;;;;;;1.75;1.65;;;4.70;99.90;;;;;;6315924;22;20014;-66
2022/02/26 19:09:34;;;;;;;0.10;0.10;;;4.60;99.90;;;;;;6316036;22;20015;-66
2022/02/26 19:12:01;;;;;;;0.10;0.10;;;4.50;99.90;;;;;;6315985;22;20389;-67
2022/02/26 19:14:27;;;;;;;0.10;0.10;;;4.40;99.90;;;;;;6305722;22;20015;-66
2022/02/26 19:16:53;;;;;;;0.10;0.10;;;4.30;99.90;;;;;;6316064;22;20374;-67
2022/02/26 19:19:18;;;;;;;1.05;0.70;;;4.20;99.90;;;;;;6305520;22;20007;-67
2022/02/26 19:21:44;;;;;;;0.10;0.10;;;4.10;99.90;;;;;;6314512;22;20022;-66
2022/02/26 19:24:10;;;;;;;0.30;0.30;;;3.90;99.90;;;;;;6303696;22;20088;-68
2022/02/26 19:26:36;;;;;;;0.10;0.10;;;3.90;99.90;;;;;;6316120;22;20010;-68
2022/02/26 19:29:03;;;;;;;0.10;0.10;;;3.80;99.90;;;;;;6305531;22;20011;-67
2022/02/26 19:31:29;;;;;;;0.43;0.43;;;3.70;99.90;;;;;;6314423;22;20011;-67
2022/02/26 19:33:55;;;;;;;0.10;0.10;;;3.70;99.90;;;;;;6315967;22;20030;-66
2022/02/26 19:36:21;;;;;;;0.10;0.10;;;3.80;99.90;;;;;;6315880;22;20500;-66
2022/02/26 19:38:47;;;;;;;0.20;0.20;;;3.80;99.90;;;;;;6304331;22;20004;-67
2022/02/26 19:41:13;;;;;;;0.13;0.13;;;3.80;99.90;;;;;;6315846;22;20317;-66
2022/02/26 19:43:38;;;;;;;0.10;0.10;;;3.80;99.90;;;;;;6315845;22;20011;-66
2022/02/26 19:46:04;;;;;;;0.10;0.10;;;3.80;99.90;;;;;;6316032;22;20019;-66
2022/02/26 19:48:30;;;;;;;0.38;0.38;;;3.80;99.90;;;;;;6307516;22;20014;-67